createdAt,value
2018-08-19T00:04:06.462Z,10.65
2018-08-19T00:09:09.026Z,10.48
2018-08-19T00:14:06.432Z,11.08
2018-08-19T00:19:03.754Z,9.88
2018-08-19T00:24:00.614Z,11.38
2018-08-19T00:28:57.632Z,10.80
2018-08-19T00:33:54.429Z,11.93
2018-08-19T00:38:51.509Z,13.22
2018-08-19T00:43:48.242Z,12.23
2018-08-19T00:48:45.137Z,12.10
2018-08-19T00:53:41.869Z,11.80
2018-08-19T00:58:38.832Z,11.93
2018-08-19T01:03:41.509Z,12.63
2018-08-19T01:08:38.269Z,11.70
2018-08-19T01:13:35.686Z,14.58
2018-08-19T01:18:32.447Z,12.85
2018-08-19T01:23:29.500Z,13.55
2018-08-19T01:28:26.440Z,11.83
2018-08-19T01:33:23.178Z,12.82
2018-08-19T01:38:20.197Z,14.40
2018-08-19T01:43:17.171Z,12.65
2018-08-19T01:48:14.529Z,13.10
2018-08-19T01:53:11.267Z,12.65
2018-08-19T01:58:08.468Z,13.03
2018-08-19T02:03:05.365Z,12.03
2018-08-19T02:08:03.271Z,12.80
2018-08-19T02:13:00.914Z,12.67
2018-08-19T02:17:59.188Z,12.50
2018-08-19T02:23:06.284Z,13.13
2018-08-19T02:28:05.929Z,12.80
2018-08-19T02:33:03.215Z,13.53
2018-08-19T02:38:00.115Z,12.93
2018-08-19T02:42:56.906Z,12.90
2018-08-19T02:47:54.052Z,15.07
2018-08-19T02:52:50.892Z,12.50
2018-08-19T02:57:48.187Z,13.37
2018-08-19T03:02:44.931Z,12.57
2018-08-19T03:07:42.613Z,13.07
2018-08-19T03:12:39.908Z,14.20
2018-08-19T03:17:37.152Z,13.60
2018-08-19T03:22:33.905Z,13.53
2018-08-19T03:27:31.719Z,14.20
2018-08-19T03:32:28.548Z,13.33
2018-08-19T03:37:25.374Z,13.60
2018-08-19T03:42:22.323Z,13.67
2018-08-19T03:47:20.223Z,13.30
2018-08-19T03:52:17.209Z,14.50
2018-08-19T03:57:17.677Z,13.87
2018-08-19T04:02:14.401Z,13.83
2018-08-19T04:07:11.294Z,13.40
2018-08-19T04:12:09.180Z,14.20
2018-08-19T04:17:07.387Z,13.70
2018-08-19T04:22:04.964Z,14.10
2018-08-19T04:27:05.481Z,14.37
2018-08-19T04:32:02.742Z,14.77
2018-08-19T04:37:00.025Z,16.27
2018-08-19T04:41:57.257Z,14.47
2018-08-19T04:46:54.458Z,14.40
2018-08-19T04:51:51.238Z,14.13
2018-08-19T04:56:48.127Z,15.20
2018-08-19T05:01:45.246Z,14.13
2018-08-19T05:06:41.980Z,13.60
2018-08-19T05:11:38.956Z,14.37
2018-08-19T05:16:35.895Z,16.03
2018-08-19T05:21:33.409Z,13.60
2018-08-19T05:26:30.130Z,13.40
2018-08-19T05:31:27.386Z,12.90
2018-08-19T05:36:28.754Z,14.37
2018-08-19T05:41:25.473Z,13.25
2018-08-19T05:46:22.361Z,14.27
2018-08-19T05:51:19.048Z,13.75
2018-08-19T05:56:15.896Z,16.07
2018-08-19T06:01:17.608Z,18.12
2018-08-19T06:06:14.380Z,15.63
2018-08-19T06:11:11.233Z,15.10
2018-08-19T06:16:08.163Z,16.77
2018-08-19T06:21:05.110Z,15.43
2018-08-19T06:26:02.628Z,15.32
2018-08-19T06:30:59.321Z,13.62
2018-08-19T06:35:56.208Z,15.28
2018-08-19T06:40:53.208Z,12.80
2018-08-19T06:45:49.898Z,14.00
2018-08-19T06:50:47.005Z,14.00
2018-08-19T06:55:43.755Z,14.35
2018-08-19T07:00:40.678Z,13.45
2018-08-19T07:05:37.564Z,13.75
2018-08-19T07:10:37.646Z,12.60
2018-08-19T07:15:35.850Z,18.00
2018-08-19T07:20:33.588Z,11.85
2018-08-19T07:25:30.398Z,11.48
2018-08-19T07:30:27.305Z,12.03
2018-08-19T07:35:24.292Z,11.63
2018-08-19T07:40:21.260Z,11.68
2018-08-19T07:45:18.821Z,14.80
2018-08-19T07:50:15.883Z,11.63
2018-08-19T07:55:12.674Z,11.60
2018-08-19T08:00:09.934Z,12.10
2018-08-19T08:05:07.485Z,10.00
2018-08-19T08:10:05.075Z,11.68
2018-08-19T08:15:02.008Z,17.87
2018-08-19T08:20:03.092Z,10.38
2018-08-19T08:25:00.802Z,9.28
2018-08-19T08:29:57.829Z,9.38
2018-08-19T08:34:54.898Z,10.05
2018-08-19T08:40:00.310Z,13.43
2018-08-19T08:44:57.075Z,8.25
2018-08-19T08:49:54.420Z,7.47
2018-08-19T08:54:52.681Z,8.95
2018-08-19T08:59:50.026Z,6.17
2018-08-19T09:04:47.256Z,5.80
2018-08-19T09:09:45.440Z,6.10
2018-08-19T09:14:42.870Z,5.58
2018-08-19T09:19:40.731Z,5.47
2018-08-19T09:24:38.150Z,7.00
2018-08-19T09:29:36.466Z,5.17
2018-08-19T09:34:33.405Z,5.00
2018-08-19T09:39:31.019Z,5.55
2018-08-19T09:44:27.825Z,6.45
2018-08-19T09:49:24.830Z,5.17
2018-08-19T09:54:26.242Z,8.35
2018-08-19T09:59:22.955Z,6.58
2018-08-19T10:04:20.853Z,7.22
2018-08-19T10:09:17.802Z,4.80
2018-08-19T10:14:14.762Z,4.97
2018-08-19T10:19:12.925Z,4.78
2018-08-19T10:24:15.441Z,4.95
2018-08-19T10:29:12.158Z,5.42
2018-08-19T10:34:09.765Z,5.17
2018-08-19T10:39:12.230Z,4.55
2018-08-19T10:44:09.030Z,7.78
2018-08-19T10:49:06.087Z,6.83
2018-08-19T10:54:03.139Z,4.47
2018-08-19T10:59:00.684Z,4.45
2018-08-19T11:03:57.482Z,5.00
2018-08-19T11:08:58.846Z,5.80
2018-08-19T11:13:55.871Z,4.30
2018-08-19T11:18:52.735Z,5.15
2018-08-19T11:23:49.626Z,4.55
2018-08-19T11:28:48.519Z,4.85
2018-08-19T11:33:45.526Z,4.50
2018-08-19T11:38:46.142Z,4.72
2018-08-19T11:43:44.022Z,4.95
2018-08-19T11:56:05.600Z,6.05
2018-08-19T12:01:03.677Z,3.58
2018-08-19T12:06:00.670Z,4.40
2018-08-19T12:11:04.006Z,4.08
2018-08-19T12:16:00.705Z,5.78
2018-08-19T12:20:57.603Z,4.28
2018-08-19T12:25:54.368Z,5.10
2018-08-19T12:30:51.329Z,4.30
2018-08-19T12:35:48.188Z,4.28
2018-08-19T12:40:47.776Z,4.20
2018-08-19T12:45:44.801Z,5.10
2018-08-19T12:50:43.145Z,4.33
2018-08-19T12:55:40.226Z,4.72
2018-08-19T13:00:37.182Z,5.12
2018-08-19T13:05:34.068Z,6.47
2018-08-19T13:10:37.798Z,4.40
2018-08-19T13:15:35.112Z,4.30
2018-08-19T13:20:32.034Z,5.75
2018-08-19T13:25:29.274Z,4.05
2018-08-19T13:30:26.227Z,4.60
2018-08-19T13:35:22.924Z,4.40
2018-08-19T13:40:19.840Z,4.37
2018-08-19T13:45:19.079Z,4.33
2018-08-19T13:50:16.082Z,5.95
2018-08-19T13:55:14.200Z,5.05
2018-08-19T14:00:13.016Z,6.28
2018-08-19T14:05:10.011Z,6.62
2018-08-19T14:10:08.173Z,4.62
2018-08-19T14:15:05.300Z,4.47
2018-08-19T14:20:02.291Z,4.53
2018-08-19T14:24:59.035Z,6.00
2018-08-19T14:29:55.992Z,5.67
2018-08-19T14:34:52.854Z,4.85
2018-08-19T14:39:49.738Z,4.83
2018-08-19T14:44:46.477Z,4.50
2018-08-19T14:49:43.355Z,5.90
2018-08-19T14:54:40.007Z,4.80
2018-08-19T14:59:36.983Z,5.03
2018-08-19T15:04:33.662Z,5.37
2018-08-19T15:09:32.019Z,6.33
2018-08-19T15:14:28.772Z,4.87
2018-08-19T15:19:26.031Z,6.20
2018-08-19T15:24:23.081Z,5.03
2018-08-19T15:29:25.406Z,5.33
2018-08-19T15:34:22.087Z,5.83
2018-08-19T15:39:19.222Z,6.42
2018-08-19T15:44:16.009Z,5.35
2018-08-19T15:49:13.041Z,16.07
2018-08-19T15:54:10.383Z,4.85
2018-08-19T15:59:08.097Z,7.10
2018-08-19T16:04:21.219Z,12.18
2018-08-19T16:09:19.332Z,17.90
2018-08-19T16:14:22.516Z,5.20
2018-08-19T16:19:19.776Z,5.67
2018-08-19T16:24:16.980Z,5.75
2018-08-19T16:29:14.757Z,10.82
2018-08-19T16:34:11.942Z,6.25
2018-08-19T16:39:09.953Z,9.38
2018-08-19T16:44:06.967Z,8.00
2018-08-19T16:49:04.345Z,4.72
2018-08-19T16:54:01.258Z,4.65
2018-08-19T16:58:58.151Z,5.08
2018-08-19T17:03:54.873Z,6.25
2018-08-19T17:08:51.876Z,6.90
2018-08-19T17:13:48.811Z,7.03
2018-08-19T17:18:45.706Z,6.58
2018-08-19T17:23:42.446Z,5.83
2018-08-19T17:28:39.526Z,5.78
2018-08-19T17:33:36.891Z,7.22
2018-08-19T17:38:34.977Z,7.03
2018-08-19T17:43:39.421Z,7.37
2018-08-19T17:48:37.748Z,8.15
2018-08-19T17:53:34.979Z,8.88
2018-08-19T17:58:31.648Z,6.45
2018-08-19T18:03:28.601Z,9.88
2018-08-19T18:08:25.369Z,5.87
2018-08-19T18:13:22.629Z,6.03
2018-08-19T18:18:20.532Z,6.35
2018-08-19T18:23:23.209Z,6.50
2018-08-19T18:28:23.021Z,5.62
2018-08-19T18:33:19.961Z,7.17
2018-08-19T18:38:22.539Z,9.98
2018-08-19T18:43:19.453Z,6.47
2018-08-19T18:48:17.423Z,5.62
2018-08-19T18:53:14.174Z,6.22
2018-08-19T18:58:11.174Z,5.42
2018-08-19T19:03:07.952Z,5.78
2018-08-19T19:08:08.466Z,7.47
2018-08-19T19:13:05.257Z,6.90
2018-08-19T19:18:02.282Z,7.53
2018-08-19T19:23:01.368Z,10.05
2018-08-19T19:27:58.267Z,6.97
2018-08-19T19:33:26.653Z,10.30
2018-08-19T19:38:23.940Z,9.78
2018-08-19T19:43:20.690Z,9.65
2018-08-19T19:48:17.859Z,14.47
2018-08-19T19:53:14.594Z,7.67
2018-08-19T19:58:11.484Z,11.33
2018-08-19T20:03:08.232Z,7.95
2018-08-19T20:08:05.172Z,8.60
2018-08-19T20:13:01.873Z,9.78
2018-08-19T20:17:58.905Z,7.58
2018-08-19T20:22:55.610Z,9.08
2018-08-19T20:27:57.142Z,8.05
2018-08-19T20:32:54.033Z,7.47
2018-08-19T20:37:51.877Z,9.63
2018-08-19T20:42:49.279Z,9.25
2018-08-19T20:47:46.503Z,10.60
2018-08-19T20:52:46.209Z,7.22
2018-08-19T20:57:43.354Z,6.95
2018-08-19T21:02:40.031Z,7.30
2018-08-19T21:07:37.026Z,7.75
2018-08-19T21:12:33.741Z,9.18
2018-08-19T21:17:31.110Z,6.67
2018-08-19T21:22:28.049Z,7.50
2018-08-19T21:27:24.695Z,7.90
2018-08-19T21:32:21.639Z,9.73
2018-08-19T21:37:27.211Z,9.10
2018-08-19T21:42:24.904Z,7.42
2018-08-19T21:47:22.503Z,8.95
2018-08-19T21:52:19.213Z,7.75
2018-08-19T21:57:16.170Z,7.87
2018-08-19T22:02:18.775Z,13.35
2018-08-19T22:07:15.486Z,9.03
2018-08-19T22:12:12.574Z,8.88
2018-08-19T22:17:10.332Z,7.83
2018-08-19T22:22:07.842Z,7.40
2018-08-19T22:27:10.343Z,11.05
2018-08-19T22:32:07.216Z,7.87
2018-08-19T22:37:04.073Z,8.65
2018-08-19T22:42:01.122Z,8.85
2018-08-19T22:46:57.921Z,8.30
2018-08-19T22:51:55.155Z,10.03
2018-08-19T22:56:51.820Z,8.78
2018-08-19T23:01:48.979Z,9.43
2018-08-19T23:06:45.709Z,10.80
2018-08-19T23:11:47.089Z,8.10
2018-08-19T23:16:43.812Z,8.58
2018-08-19T23:21:40.770Z,8.70
2018-08-19T23:26:37.455Z,8.45
2018-08-19T23:31:34.326Z,9.68
2018-08-19T23:36:31.070Z,9.28
2018-08-19T23:41:28.245Z,8.93
2018-08-19T23:46:24.549Z,9.90
2018-08-19T23:51:28.912Z,8.95
2018-08-19T23:56:25.612Z,10.30
